createdAt,value
2022-10-07T00:01:19.062Z,11.62
2022-10-07T00:03:47.196Z,11.59
2022-10-07T00:06:17.362Z,11.49
2022-10-07T00:08:48.577Z,11.45
2022-10-07T00:11:18.688Z,11.40
2022-10-07T00:13:48.654Z,11.34
2022-10-07T00:16:20.409Z,11.28
2022-10-07T00:18:49.314Z,11.23
2022-10-07T00:21:19.260Z,11.17
2022-10-07T00:23:49.554Z,11.12
2022-10-07T00:26:20.274Z,11.08
2022-10-07T00:28:49.075Z,11.07
2022-10-07T00:31:18.618Z,11.01
2022-10-07T00:33:47.680Z,10.97
2022-10-07T00:36:19.541Z,10.94
2022-10-07T00:38:53.386Z,10.90
2022-10-07T00:41:23.420Z,10.84
2022-10-07T00:43:51.753Z,10.82
2022-10-07T00:46:29.458Z,10.86
2022-10-07T00:48:59.076Z,10.86
2022-10-07T00:51:28.151Z,10.86
2022-10-07T00:53:57.782Z,10.93
2022-10-07T00:56:28.157Z,10.94
2022-10-07T00:58:56.780Z,11.07
2022-10-07T01:01:25.257Z,11.28
2022-10-07T01:03:54.739Z,11.32
2022-10-07T01:06:23.281Z,11.43
2022-10-07T01:08:54.032Z,11.38
2022-10-07T01:11:37.001Z,11.33
2022-10-07T01:14:07.601Z,11.24
2022-10-07T01:16:47.443Z,11.23
2022-10-07T01:19:39.025Z,11.18
2022-10-07T01:22:20.756Z,11.22
2022-10-07T01:25:01.218Z,11.27
2022-10-07T01:27:31.746Z,11.31
2022-10-07T01:30:05.164Z,11.32
2022-10-07T01:32:37.033Z,11.46
2022-10-07T01:35:10.134Z,11.44
2022-10-07T01:37:42.972Z,11.46
2022-10-07T01:40:14.988Z,11.50
2022-10-07T01:42:47.155Z,11.48
2022-10-07T01:45:21.206Z,11.49
2022-10-07T01:47:49.371Z,11.53
2022-10-07T01:50:19.766Z,11.48
2022-10-07T01:53:03.172Z,11.47
2022-10-07T01:55:45.464Z,11.46
2022-10-07T01:58:33.456Z,11.42
2022-10-07T02:01:10.204Z,11.37
2022-10-07T02:03:51.300Z,11.35
2022-10-07T02:06:31.251Z,11.37
2022-10-07T02:09:04.695Z,11.33
2022-10-07T02:11:37.856Z,11.34
2022-10-07T02:14:13.053Z,11.30
2022-10-07T02:16:44.195Z,11.28
2022-10-07T02:19:17.164Z,11.23
2022-10-07T02:21:49.761Z,11.24
2022-10-07T02:24:19.542Z,11.27
2022-10-07T02:26:51.367Z,11.25
2022-10-07T02:29:23.229Z,11.26
2022-10-07T02:31:53.753Z,11.22
2022-10-07T02:34:25.771Z,11.11
2022-10-07T02:36:58.734Z,10.87
2022-10-07T02:39:26.819Z,10.63
2022-10-07T02:42:03.744Z,10.45
2022-10-07T02:44:37.645Z,10.27
2022-10-07T02:47:08.094Z,10.14
2022-10-07T02:49:39.153Z,10.05
2022-10-07T02:52:10.261Z,9.96
2022-10-07T02:54:42.868Z,9.86
2022-10-07T02:57:14.392Z,9.85
2022-10-07T02:59:45.807Z,9.79
2022-10-07T03:02:20.788Z,9.72
2022-10-07T03:04:49.895Z,9.68
2022-10-07T03:07:17.928Z,9.67
2022-10-07T03:09:46.069Z,9.69
2022-10-07T03:12:14.088Z,9.66
2022-10-07T03:14:45.053Z,9.60
2022-10-07T03:17:13.122Z,9.58
2022-10-07T03:19:41.317Z,9.57
2022-10-07T03:22:09.381Z,9.57
2022-10-07T03:24:37.790Z,9.56
2022-10-07T03:27:07.366Z,9.56
2022-10-07T03:29:35.967Z,9.55
2022-10-07T03:32:05.584Z,9.53
2022-10-07T03:34:33.580Z,9.53
2022-10-07T03:37:01.531Z,9.56
2022-10-07T03:39:29.558Z,9.52
2022-10-07T03:41:57.586Z,9.49
2022-10-07T03:44:25.594Z,9.50
2022-10-07T03:46:54.110Z,9.47
2022-10-07T03:49:24.081Z,9.42
2022-10-07T03:51:52.080Z,9.38
2022-10-07T03:54:20.072Z,9.31
2022-10-07T03:56:48.166Z,9.28
2022-10-07T03:59:16.162Z,9.24
2022-10-07T04:01:44.216Z,9.21
2022-10-07T04:04:12.274Z,9.12
2022-10-07T04:06:42.970Z,9.08
2022-10-07T04:09:13.058Z,9.05
2022-10-07T04:11:41.907Z,9.04
2022-10-07T04:14:09.899Z,8.99
2022-10-07T04:16:38.838Z,9.02
2022-10-07T04:19:07.340Z,9.01
2022-10-07T04:21:35.376Z,8.98
2022-10-07T04:24:04.862Z,8.96
2022-10-07T04:26:32.891Z,9.00
2022-10-07T04:29:01.069Z,8.99
2022-10-07T04:31:29.136Z,9.01
2022-10-07T04:33:57.159Z,9.01
2022-10-07T04:36:25.996Z,9.05
2022-10-07T04:38:54.008Z,9.01
2022-10-07T04:41:23.390Z,9.00
2022-10-07T04:43:55.408Z,8.94
2022-10-07T04:46:25.929Z,8.89
2022-10-07T04:48:53.921Z,8.86
2022-10-07T04:51:22.799Z,8.84
2022-10-07T04:53:56.897Z,8.83
2022-10-07T04:56:28.441Z,8.83
2022-10-07T04:58:56.585Z,8.78
2022-10-07T05:01:24.890Z,8.81
2022-10-07T05:03:52.929Z,8.80
2022-10-07T05:06:20.978Z,8.82
2022-10-07T05:08:50.025Z,8.82
2022-10-07T05:11:18.053Z,8.88
2022-10-07T05:13:47.589Z,8.93
2022-10-07T05:16:15.632Z,8.94
2022-10-07T05:18:43.774Z,8.96
2022-10-07T05:21:11.757Z,9.01
2022-10-07T05:23:39.974Z,9.03
2022-10-07T05:26:09.304Z,9.12
2022-10-07T05:28:40.300Z,9.24
2022-10-07T05:31:10.941Z,9.38
2022-10-07T05:33:39.738Z,9.49
2022-10-07T05:36:09.713Z,9.59
2022-10-07T05:38:38.042Z,9.70
2022-10-07T05:41:08.281Z,9.86
2022-10-07T05:43:40.557Z,9.98
2022-10-07T05:46:13.112Z,10.15
2022-10-07T05:48:41.374Z,10.31
2022-10-07T05:51:09.803Z,10.44
2022-10-07T05:53:41.338Z,10.57
2022-10-07T05:56:12.234Z,10.69
2022-10-07T05:58:40.186Z,10.78
2022-10-07T06:01:15.761Z,10.87
2022-10-07T06:03:44.502Z,10.88
2022-10-07T06:06:12.497Z,10.84
2022-10-07T06:08:40.562Z,10.95
2022-10-07T06:11:26.570Z,10.89
2022-10-07T06:13:56.006Z,10.99
2022-10-07T06:16:26.612Z,11.10
2022-10-07T06:18:56.870Z,11.27
2022-10-07T06:21:28.319Z,11.46
2022-10-07T06:23:58.101Z,11.63
2022-10-07T06:26:26.316Z,11.71
2022-10-07T06:28:54.373Z,11.93
2022-10-07T06:31:25.473Z,12.11
2022-10-07T06:33:55.692Z,12.20
2022-10-07T06:36:23.999Z,12.28
2022-10-07T06:38:53.996Z,12.41
2022-10-07T06:41:22.537Z,12.47
2022-10-07T06:43:50.901Z,12.48
2022-10-07T06:46:20.869Z,12.47
2022-10-07T06:48:49.010Z,12.64
2022-10-07T06:51:20.065Z,12.73
2022-10-07T06:53:51.964Z,12.82
2022-10-07T06:56:20.004Z,12.89
2022-10-07T06:58:49.901Z,13.09
2022-10-07T07:01:18.116Z,13.34
2022-10-07T07:03:46.161Z,13.54
2022-10-07T07:06:15.026Z,13.70
2022-10-07T07:08:46.024Z,13.95
2022-10-07T07:11:33.107Z,14.16
2022-10-07T07:14:01.165Z,14.34
2022-10-07T07:16:29.716Z,14.50
2022-10-07T07:18:59.316Z,14.69
2022-10-07T07:21:28.862Z,14.86
2022-10-07T07:23:59.400Z,15.01
2022-10-07T07:26:28.325Z,15.17
2022-10-07T07:28:59.258Z,15.24
2022-10-07T07:31:29.108Z,15.42
2022-10-07T07:34:00.843Z,15.56
2022-10-07T07:36:31.040Z,15.68
2022-10-07T07:39:02.134Z,15.72
2022-10-07T07:41:32.067Z,15.78
2022-10-07T07:44:01.450Z,15.93
2022-10-07T07:46:33.434Z,16.04
2022-10-07T07:49:01.699Z,16.18
2022-10-07T07:51:29.968Z,16.11
2022-10-07T07:53:57.990Z,16.27
2022-10-07T07:56:29.203Z,16.38
2022-10-07T07:59:00.595Z,16.47
2022-10-07T08:01:32.172Z,16.59
2022-10-07T08:04:00.969Z,16.71
2022-10-07T08:06:31.448Z,16.82
2022-10-07T08:08:59.682Z,16.96
2022-10-07T08:11:29.875Z,16.97
2022-10-07T08:13:58.066Z,17.07
2022-10-07T08:16:27.659Z,17.06
2022-10-07T08:18:57.095Z,17.13
2022-10-07T08:21:27.780Z,17.27
2022-10-07T08:23:58.887Z,17.33
2022-10-07T08:26:30.038Z,17.40
2022-10-07T08:28:58.970Z,17.39
2022-10-07T08:31:28.669Z,17.30
2022-10-07T08:33:58.332Z,17.35
2022-10-07T08:36:28.369Z,17.49
2022-10-07T08:38:56.453Z,17.52
2022-10-07T08:41:37.459Z,17.64
2022-10-07T08:44:17.889Z,17.64
2022-10-07T08:46:54.172Z,17.65
2022-10-07T08:49:29.355Z,17.72
2022-10-07T08:52:04.260Z,17.78
2022-10-07T08:54:33.438Z,17.89
2022-10-07T08:57:14.319Z,17.73
2022-10-07T08:59:49.126Z,17.89
2022-10-07T09:02:27.046Z,17.93
2022-10-07T09:05:01.704Z,18.06
2022-10-07T09:07:35.303Z,18.20
2022-10-07T09:10:17.318Z,18.21
2022-10-07T09:12:52.360Z,18.21
2022-10-07T09:15:23.699Z,18.20
2022-10-07T09:17:55.455Z,18.34
2022-10-07T09:20:31.782Z,18.45
2022-10-07T09:23:02.191Z,18.46
2022-10-07T09:25:31.948Z,18.55
2022-10-07T09:28:01.513Z,18.68
2022-10-07T09:30:29.906Z,18.68
2022-10-07T09:32:59.061Z,18.53
2022-10-07T09:35:31.685Z,18.70
2022-10-07T09:38:01.858Z,18.70
2022-10-07T09:40:36.185Z,18.79
2022-10-07T09:43:14.167Z,18.73
2022-10-07T09:45:47.409Z,18.92
2022-10-07T09:48:22.084Z,19.10
2022-10-07T09:50:50.216Z,19.13
2022-10-07T09:53:21.269Z,19.02
2022-10-07T09:55:50.422Z,18.99
2022-10-07T09:58:22.435Z,19.04
2022-10-07T10:00:52.196Z,19.07
2022-10-07T10:03:25.683Z,19.18
2022-10-07T10:05:57.756Z,19.27
2022-10-07T10:08:29.279Z,19.35
2022-10-07T10:10:58.825Z,19.26
2022-10-07T10:13:32.078Z,19.48
2022-10-07T10:16:00.957Z,19.60
2022-10-07T10:18:54.876Z,19.76
2022-10-07T10:21:30.339Z,19.86
2022-10-07T10:23:59.787Z,19.98
2022-10-07T10:26:54.078Z,19.91
2022-10-07T10:29:37.277Z,20.02
2022-10-07T10:32:29.488Z,20.03
2022-10-07T10:35:04.108Z,20.16
2022-10-07T10:37:58.385Z,20.06
2022-10-07T10:40:33.950Z,20.08
2022-10-07T10:43:17.563Z,20.18
2022-10-07T10:46:06.665Z,20.33
2022-10-07T10:48:44.329Z,20.11
2022-10-07T10:51:32.218Z,20.37
2022-10-07T10:54:18.148Z,20.40
2022-10-07T10:56:51.976Z,20.40
2022-10-07T10:59:38.799Z,20.50
2022-10-07T11:02:29.553Z,20.32
2022-10-07T11:05:03.227Z,20.45
2022-10-07T11:07:35.313Z,20.61
2022-10-07T11:10:07.974Z,20.75
2022-10-07T11:12:41.583Z,20.84
2022-10-07T11:15:21.025Z,20.91
2022-10-07T11:17:54.387Z,20.79
2022-10-07T11:20:28.864Z,20.78
2022-10-07T11:23:01.755Z,20.74
2022-10-07T11:25:35.324Z,20.85
2022-10-07T11:28:15.367Z,20.94
2022-10-07T11:30:55.930Z,21.07
2022-10-07T11:33:32.269Z,21.16
2022-10-07T11:36:09.367Z,21.22
2022-10-07T11:38:39.951Z,21.18
2022-10-07T11:41:14.129Z,21.22
2022-10-07T11:43:46.364Z,20.94
2022-10-07T11:46:19.498Z,21.04
2022-10-07T11:48:53.565Z,20.94
2022-10-07T11:51:25.756Z,21.16
2022-10-07T11:53:57.813Z,21.15
2022-10-07T11:56:27.650Z,21.23
2022-10-07T11:59:03.519Z,21.30
2022-10-07T12:01:41.215Z,21.22
2022-10-07T12:04:38.321Z,21.22
2022-10-07T12:07:40.595Z,21.25
2022-10-07T12:10:20.349Z,21.38
2022-10-07T12:12:50.710Z,21.43
2022-10-07T12:15:31.132Z,21.31
2022-10-07T12:18:30.077Z,21.38
2022-10-07T12:21:09.861Z,21.36
2022-10-07T12:23:42.679Z,21.31
2022-10-07T12:26:50.618Z,21.31
2022-10-07T12:29:36.661Z,21.20
2022-10-07T12:32:05.146Z,21.12
2022-10-07T12:34:44.282Z,21.23
2022-10-07T12:37:46.433Z,21.40
2022-10-07T12:40:22.143Z,21.37
2022-10-07T12:42:59.711Z,21.50
2022-10-07T12:45:29.426Z,21.43
2022-10-07T12:48:00.550Z,21.49
2022-10-07T12:50:33.852Z,21.40
2022-10-07T12:53:05.053Z,21.48
2022-10-07T12:55:37.303Z,21.29
2022-10-07T12:58:36.398Z,21.18
2022-10-07T13:01:17.469Z,21.23
2022-10-07T13:04:18.766Z,21.33
2022-10-07T13:07:19.452Z,21.35
2022-10-07T13:10:14.964Z,21.32
2022-10-07T13:12:51.306Z,21.22
2022-10-07T13:15:33.784Z,21.12
2022-10-07T13:18:11.012Z,20.93
2022-10-07T13:20:53.054Z,20.96
2022-10-07T13:23:26.980Z,20.93
2022-10-07T13:25:59.413Z,20.96
2022-10-07T13:28:35.267Z,21.04
2022-10-07T13:31:16.293Z,21.09
2022-10-07T13:33:44.722Z,21.04
2022-10-07T13:36:17.725Z,20.96
2022-10-07T13:38:47.361Z,21.01
2022-10-07T13:41:24.097Z,20.96
2022-10-07T13:43:55.012Z,20.90
2022-10-07T13:46:25.554Z,20.96
2022-10-07T13:48:56.453Z,20.94
2022-10-07T13:51:29.899Z,21.01
2022-10-07T13:54:00.238Z,21.08
2022-10-07T13:56:33.925Z,21.02
2022-10-07T13:59:03.811Z,20.94
2022-10-07T14:01:37.061Z,20.98
2022-10-07T14:04:21.425Z,20.98
2022-10-07T14:06:53.768Z,21.01
2022-10-07T14:09:24.508Z,20.97
2022-10-07T14:11:59.484Z,20.93
2022-10-07T14:14:34.756Z,20.86
2022-10-07T14:17:10.683Z,20.82
2022-10-07T14:19:39.979Z,20.78
2022-10-07T14:22:19.353Z,20.70
2022-10-07T14:25:01.564Z,20.61
2022-10-07T14:28:05.736Z,20.46
2022-10-07T14:30:56.324Z,20.45
2022-10-07T14:34:05.016Z,20.39
2022-10-07T14:36:33.744Z,20.30
2022-10-07T14:39:04.062Z,20.30
2022-10-07T14:41:32.784Z,20.26
2022-10-07T14:44:03.995Z,20.19
2022-10-07T14:46:32.097Z,20.17
2022-10-07T14:49:00.181Z,20.01
2022-10-07T14:51:30.043Z,19.92
2022-10-07T14:54:03.954Z,19.91
2022-10-07T14:56:36.492Z,19.86
2022-10-07T14:59:10.825Z,19.81
2022-10-07T15:01:38.834Z,19.75
2022-10-07T15:04:07.122Z,19.70
2022-10-07T15:06:35.736Z,19.60
2022-10-07T15:09:03.925Z,19.50
2022-10-07T15:11:31.968Z,19.50
2022-10-07T15:13:59.976Z,19.33
2022-10-07T15:16:29.980Z,19.30
2022-10-07T15:18:58.100Z,19.24
2022-10-07T15:21:26.337Z,19.21
2022-10-07T15:23:55.106Z,19.15
2022-10-07T15:26:24.741Z,19.08
2022-10-07T15:28:55.262Z,19.07
2022-10-07T15:31:25.173Z,18.94
2022-10-07T15:33:57.285Z,18.86
2022-10-07T15:36:26.156Z,18.74
2022-10-07T15:38:54.454Z,18.69
2022-10-07T15:41:34.150Z,18.67
2022-10-07T15:44:04.000Z,18.53
2022-10-07T15:46:32.731Z,18.38
2022-10-07T15:49:03.896Z,18.36
2022-10-07T15:51:32.028Z,18.32
2022-10-07T15:54:00.231Z,18.26
2022-10-07T15:56:28.608Z,18.17
2022-10-07T15:58:58.694Z,18.02
2022-10-07T16:01:28.415Z,17.97
2022-10-07T16:03:56.494Z,17.86
2022-10-07T16:06:28.210Z,17.73
2022-10-07T16:08:57.994Z,17.70
2022-10-07T16:11:27.239Z,17.57
2022-10-07T16:13:55.214Z,17.41
2022-10-07T16:16:25.067Z,17.27
2022-10-07T16:18:54.832Z,17.18
2022-10-07T16:21:28.025Z,17.08
2022-10-07T16:23:58.604Z,17.00
2022-10-07T16:26:30.223Z,16.93
2022-10-07T16:29:19.638Z,16.87
2022-10-07T16:31:49.061Z,16.82
2022-10-07T16:34:18.571Z,16.75
2022-10-07T16:36:49.734Z,16.73
2022-10-07T16:39:19.162Z,16.70
2022-10-07T16:41:48.141Z,16.60
2022-10-07T16:44:16.701Z,16.58
2022-10-07T16:46:45.051Z,16.50
2022-10-07T16:49:15.154Z,16.43
2022-10-07T16:51:43.892Z,16.37
2022-10-07T16:54:16.050Z,16.28
2022-10-07T16:56:47.136Z,16.13
2022-10-07T16:59:22.669Z,16.05
2022-10-07T17:01:52.895Z,16.00
2022-10-07T17:04:21.381Z,15.87
2022-10-07T17:06:49.797Z,15.80
2022-10-07T17:09:19.370Z,15.76
2022-10-07T17:11:47.910Z,15.69
2022-10-07T17:14:17.982Z,15.69
2022-10-07T17:16:47.774Z,15.63
2022-10-07T17:19:18.039Z,15.69
2022-10-07T17:21:48.185Z,15.61
2022-10-07T17:24:18.718Z,15.49
2022-10-07T17:26:47.540Z,15.42
2022-10-07T17:29:18.399Z,15.34
2022-10-07T17:31:50.278Z,15.18
2022-10-07T17:34:19.915Z,15.08
2022-10-07T17:36:48.937Z,15.00
2022-10-07T17:39:19.520Z,14.90
2022-10-07T17:41:48.449Z,14.77
2022-10-07T17:44:16.705Z,14.61
2022-10-07T17:46:44.848Z,14.56
2022-10-07T17:49:14.387Z,14.49
2022-10-07T17:51:44.078Z,14.43
2022-10-07T17:54:13.966Z,14.47
2022-10-07T17:56:46.202Z,14.41
2022-10-07T17:59:20.203Z,14.36
2022-10-07T18:01:48.323Z,14.34
2022-10-07T18:04:23.702Z,14.28
2022-10-07T18:06:52.656Z,14.23
2022-10-07T18:09:22.221Z,14.16
2022-10-07T18:12:09.083Z,14.14
2022-10-07T18:14:54.625Z,14.08
2022-10-07T18:17:24.784Z,14.01
2022-10-07T18:19:53.312Z,13.98
2022-10-07T18:22:21.628Z,13.97
2022-10-07T18:24:53.213Z,14.00
2022-10-07T18:27:25.571Z,14.03
2022-10-07T18:29:54.026Z,14.01
2022-10-07T18:32:22.389Z,14.01
2022-10-07T18:34:50.750Z,14.08
2022-10-07T18:37:18.773Z,14.00
2022-10-07T18:39:47.029Z,13.89
2022-10-07T18:42:15.077Z,13.84
2022-10-07T18:44:44.761Z,13.75
2022-10-07T18:47:13.166Z,13.70
2022-10-07T18:49:42.193Z,13.62
2022-10-07T18:52:10.821Z,13.53
2022-10-07T18:54:38.866Z,13.39
2022-10-07T18:57:06.826Z,13.34
2022-10-07T18:59:35.282Z,13.28
2022-10-07T19:02:05.398Z,13.29
2022-10-07T19:04:36.846Z,13.23
2022-10-07T19:07:05.370Z,13.23
2022-10-07T19:09:41.773Z,13.22
2022-10-07T19:12:30.265Z,13.20
2022-10-07T19:14:59.787Z,13.20
2022-10-07T19:17:29.680Z,13.15
2022-10-07T19:20:00.808Z,13.14
2022-10-07T19:22:28.808Z,13.09
2022-10-07T19:25:14.133Z,13.10
2022-10-07T19:27:43.078Z,13.00
2022-10-07T19:30:11.836Z,12.87
2022-10-07T19:32:41.211Z,12.76
2022-10-07T19:35:09.773Z,12.68
2022-10-07T19:37:38.781Z,12.63
2022-10-07T19:40:08.198Z,12.61
2022-10-07T19:42:38.253Z,12.67
2022-10-07T19:45:09.338Z,12.66
2022-10-07T19:47:37.775Z,12.68
2022-10-07T19:50:08.502Z,12.61
2022-10-07T19:52:36.974Z,12.54
2022-10-07T19:55:05.574Z,12.48
2022-10-07T19:57:33.570Z,12.48
2022-10-07T20:00:01.685Z,12.50
2022-10-07T20:02:29.688Z,12.48
2022-10-07T20:04:58.134Z,12.49
2022-10-07T20:07:27.562Z,12.46
2022-10-07T20:09:55.980Z,12.43
2022-10-07T20:12:24.486Z,12.36
2022-10-07T20:14:52.538Z,12.34
2022-10-07T20:17:20.523Z,12.34
2022-10-07T20:19:48.486Z,12.38
2022-10-07T20:22:16.762Z,12.30
2022-10-07T20:24:46.181Z,12.23
2022-10-07T20:27:14.294Z,12.18
2022-10-07T20:29:56.119Z,12.27
2022-10-07T20:32:24.250Z,12.28
2022-10-07T20:34:52.566Z,12.18
2022-10-07T20:37:21.340Z,12.10
2022-10-07T20:40:08.525Z,11.95
2022-10-07T20:42:37.059Z,11.91
2022-10-07T20:45:05.575Z,11.86
2022-10-07T20:47:35.551Z,11.76
2022-10-07T20:50:04.146Z,11.68
2022-10-07T20:52:42.188Z,11.63
2022-10-07T20:55:14.351Z,11.58
2022-10-07T20:57:42.361Z,11.48
2022-10-07T21:00:16.427Z,11.44
2022-10-07T21:02:45.671Z,11.44
2022-10-07T21:05:14.528Z,11.40
2022-10-07T21:07:42.966Z,11.32
2022-10-07T21:10:15.575Z,11.34
2022-10-07T21:12:44.781Z,11.34
2022-10-07T21:15:13.093Z,11.31
2022-10-07T21:17:44.453Z,11.28
2022-10-07T21:20:12.434Z,11.23
2022-10-07T21:22:40.405Z,11.16
2022-10-07T21:25:13.138Z,11.03
2022-10-07T21:27:42.620Z,11.00
2022-10-07T21:30:12.051Z,10.98
2022-10-07T21:32:40.061Z,10.95
2022-10-07T21:35:08.600Z,10.93
2022-10-07T21:37:36.621Z,10.94
2022-10-07T21:40:04.837Z,10.92
2022-10-07T21:42:32.942Z,10.93
2022-10-07T21:45:02.303Z,10.93
2022-10-07T21:47:30.274Z,10.92
2022-10-07T21:49:58.258Z,10.89
2022-10-07T21:52:26.219Z,10.86
2022-10-07T21:54:55.468Z,10.90
2022-10-07T21:57:23.436Z,10.87
2022-10-07T21:59:52.349Z,10.87
2022-10-07T22:02:21.766Z,10.82
2022-10-07T22:04:49.743Z,10.76
2022-10-07T22:07:35.296Z,10.80
2022-10-07T22:10:03.321Z,10.76
2022-10-07T22:12:31.307Z,10.78
2022-10-07T22:14:59.376Z,10.79
2022-10-07T22:17:28.788Z,10.81
2022-10-07T22:19:56.767Z,10.82
2022-10-07T22:22:25.303Z,10.80
2022-10-07T22:24:53.309Z,10.72
2022-10-07T22:27:22.173Z,10.73
2022-10-07T22:29:50.170Z,10.77
2022-10-07T22:32:18.117Z,10.74
2022-10-07T22:35:04.603Z,10.71
2022-10-07T22:37:32.646Z,10.61
2022-10-07T22:40:00.621Z,10.60
2022-10-07T22:42:28.556Z,10.52
2022-10-07T22:44:56.556Z,10.53
2022-10-07T22:47:24.933Z,10.49
2022-10-07T22:49:55.344Z,10.44
2022-10-07T22:52:23.393Z,10.38
2022-10-07T22:54:52.842Z,10.34
2022-10-07T22:57:20.853Z,10.26
2022-10-07T22:59:48.827Z,10.25
2022-10-07T23:02:16.915Z,10.30
2022-10-07T23:04:44.907Z,10.25
2022-10-07T23:07:14.603Z,10.18
2022-10-07T23:09:42.560Z,10.14
2022-10-07T23:12:10.715Z,10.16
2022-10-07T23:14:38.715Z,10.13
2022-10-07T23:17:06.709Z,10.03
2022-10-07T23:19:34.685Z,10.06
2022-10-07T23:22:02.666Z,10.00
2022-10-07T23:24:32.093Z,9.99
2022-10-07T23:27:00.087Z,9.98
2022-10-07T23:29:28.770Z,10.04
2022-10-07T23:31:57.024Z,10.10
2022-10-07T23:34:25.009Z,10.07
2022-10-07T23:36:55.347Z,10.19
2022-10-07T23:39:23.346Z,10.20
2022-10-07T23:41:52.720Z,10.21
2022-10-07T23:44:23.122Z,10.22
2022-10-07T23:46:51.887Z,10.25
2022-10-07T23:49:19.888Z,10.25
2022-10-07T23:51:47.857Z,10.23
2022-10-07T23:54:15.980Z,10.23
2022-10-07T23:56:44.018Z,10.21
2022-10-07T23:59:13.491Z,10.18
